Terminal Aerodrome Forecast
Issued by NWS

Home | Current Version | Previous Version | Text Only | Print | Product List | Glossary On
Versions: 1 2 3 4 5 6 7 8 9 10 11 12 13 14 15 16 17 18 19
257
FTUS43 KSGF 222320
TAFJLN
TAF
KJLN 222320Z 2300/2324 12011G17KT P6SM OVC040
     FM230600 14011KT P6SM OVC030
     FM230900 15012KT P6SM OVC025 PROB30 2310/2315 P6SM -DZ
     FM231500 16015G21KT P6SM BKN040
     FM231800 18017G23KT P6SM SCT250=

USA.gov is the U.S. government's official web portal to all federal, state and local government web resources and services.